sensor_id;sensor_type;location;lat;lon;timestamp;P1;durP1;ratioP1;P2;durP2;ratioP2
21175;SDS011;10746;50.178;8.186;2023-03-29T00:01:11;4.93;;;3.27;;
21175;SDS011;10746;50.178;8.186;2023-03-29T00:03:38;4.60;;;3.30;;
21175;SDS011;10746;50.178;8.186;2023-03-29T00:06:08;10.07;;;3.67;;
21175;SDS011;10746;50.178;8.186;2023-03-29T00:08:39;5.73;;;3.73;;
21175;SDS011;10746;50.178;8.186;2023-03-29T00:11:07;4.77;;;3.13;;
21175;SDS011;10746;50.178;8.186;2023-03-29T00:13:36;3.57;;;3.20;;
21175;SDS011;10746;50.178;8.186;2023-03-29T00:16:04;5.33;;;3.27;;
21175;SDS011;10746;50.178;8.186;2023-03-29T00:18:31;3.60;;;3.00;;
21175;SDS011;10746;50.178;8.186;2023-03-29T00:20:58;4.17;;;3.43;;
21175;SDS011;10746;50.178;8.186;2023-03-29T00:23:25;6.23;;;3.30;;
21175;SDS011;10746;50.178;8.186;2023-03-29T00:25:52;4.03;;;3.43;;
21175;SDS011;10746;50.178;8.186;2023-03-29T00:28:21;6.83;;;3.43;;
21175;SDS011;10746;50.178;8.186;2023-03-29T00:30:48;5.43;;;3.57;;
21175;SDS011;10746;50.178;8.186;2023-03-29T00:33:15;4.50;;;3.20;;
21175;SDS011;10746;50.178;8.186;2023-03-29T00:35:44;4.00;;;3.17;;
21175;SDS011;10746;50.178;8.186;2023-03-29T00:38:12;5.17;;;3.10;;
21175;SDS011;10746;50.178;8.186;2023-03-29T00:40:40;4.53;;;3.33;;
21175;SDS011;10746;50.178;8.186;2023-03-29T00:43:08;3.93;;;2.90;;
21175;SDS011;10746;50.178;8.186;2023-03-29T00:45:37;5.97;;;2.90;;
21175;SDS011;10746;50.178;8.186;2023-03-29T00:48:04;5.27;;;3.20;;
21175;SDS011;10746;50.178;8.186;2023-03-29T00:50:34;4.13;;;3.07;;
21175;SDS011;10746;50.178;8.186;2023-03-29T00:53:05;4.07;;;3.10;;
21175;SDS011;10746;50.178;8.186;2023-03-29T00:55:36;7.70;;;3.80;;
21175;SDS011;10746;50.178;8.186;2023-03-29T00:58:07;5.13;;;3.10;;
21175;SDS011;10746;50.178;8.186;2023-03-29T01:00:39;3.70;;;3.40;;
21175;SDS011;10746;50.178;8.186;2023-03-29T01:03:11;4.30;;;3.37;;
21175;SDS011;10746;50.178;8.186;2023-03-29T01:05:48;4.13;;;3.00;;
21175;SDS011;10746;50.178;8.186;2023-03-29T01:08:19;4.00;;;3.17;;
21175;SDS011;10746;50.178;8.186;2023-03-29T01:10:52;7.10;;;3.00;;
21175;SDS011;10746;50.178;8.186;2023-03-29T01:13:24;7.67;;;3.40;;
21175;SDS011;10746;50.178;8.186;2023-03-29T01:16:00;3.67;;;2.93;;
21175;SDS011;10746;50.178;8.186;2023-03-29T01:18:28;5.30;;;3.50;;
21175;SDS011;10746;50.178;8.186;2023-03-29T01:21:00;3.10;;;2.83;;
21175;SDS011;10746;50.178;8.186;2023-03-29T01:23:48;2.80;;;2.60;;
21175;SDS011;10746;50.178;8.186;2023-03-29T01:26:35;6.40;;;3.23;;
21175;SDS011;10746;50.178;8.186;2023-03-29T01:29:10;3.53;;;2.80;;
21175;SDS011;10746;50.178;8.186;2023-03-29T01:31:43;5.83;;;2.73;;
21175;SDS011;10746;50.178;8.186;2023-03-29T01:34:15;4.13;;;3.03;;
21175;SDS011;10746;50.178;8.186;2023-03-29T01:36:50;3.43;;;3.00;;
21175;SDS011;10746;50.178;8.186;2023-03-29T01:39:23;3.10;;;2.83;;
21175;SDS011;10746;50.178;8.186;2023-03-29T01:41:51;3.80;;;2.90;;
21175;SDS011;10746;50.178;8.186;2023-03-29T01:44:29;3.43;;;2.80;;
21175;SDS011;10746;50.178;8.186;2023-03-29T01:47:02;3.60;;;2.90;;
21175;SDS011;10746;50.178;8.186;2023-03-29T01:49:35;7.17;;;2.70;;
21175;SDS011;10746;50.178;8.186;2023-03-29T01:52:06;3.13;;;2.83;;
21175;SDS011;10746;50.178;8.186;2023-03-29T01:54:40;3.70;;;3.00;;
21175;SDS011;10746;50.178;8.186;2023-03-29T01:57:12;5.47;;;2.97;;
21175;SDS011;10746;50.178;8.186;2023-03-29T01:59:42;3.47;;;3.17;;
21175;SDS011;10746;50.178;8.186;2023-03-29T02:02:12;3.93;;;2.90;;
21175;SDS011;10746;50.178;8.186;2023-03-29T02:04:42;4.27;;;2.90;;
21175;SDS011;10746;50.178;8.186;2023-03-29T02:07:15;4.87;;;3.10;;
21175;SDS011;10746;50.178;8.186;2023-03-29T02:09:44;7.90;;;2.93;;
21175;SDS011;10746;50.178;8.186;2023-03-29T02:12:12;9.37;;;3.23;;
21175;SDS011;10746;50.178;8.186;2023-03-29T02:14:43;5.30;;;3.37;;
21175;SDS011;10746;50.178;8.186;2023-03-29T02:17:16;6.67;;;3.00;;
21175;SDS011;10746;50.178;8.186;2023-03-29T02:19:44;3.80;;;3.17;;
21175;SDS011;10746;50.178;8.186;2023-03-29T02:22:15;3.40;;;3.10;;
21175;SDS011;10746;50.178;8.186;2023-03-29T02:24:47;3.40;;;3.10;;
21175;SDS011;10746;50.178;8.186;2023-03-29T02:27:17;4.17;;;2.80;;
21175;SDS011;10746;50.178;8.186;2023-03-29T02:29:45;5.70;;;3.20;;
21175;SDS011;10746;50.178;8.186;2023-03-29T02:32:14;6.33;;;3.07;;
21175;SDS011;10746;50.178;8.186;2023-03-29T02:34:45;4.07;;;3.37;;
21175;SDS011;10746;50.178;8.186;2023-03-29T02:37:18;6.73;;;2.77;;
21175;SDS011;10746;50.178;8.186;2023-03-29T02:39:48;3.73;;;3.07;;
21175;SDS011;10746;50.178;8.186;2023-03-29T02:42:16;3.40;;;3.10;;
21175;SDS011;10746;50.178;8.186;2023-03-29T02:44:45;3.97;;;3.10;;
21175;SDS011;10746;50.178;8.186;2023-03-29T02:47:16;4.03;;;3.37;;
21175;SDS011;10746;50.178;8.186;2023-03-29T02:49:47;6.43;;;3.47;;
21175;SDS011;10746;50.178;8.186;2023-03-29T02:52:14;5.03;;;3.50;;
21175;SDS011;10746;50.178;8.186;2023-03-29T02:54:45;4.37;;;3.30;;
21175;SDS011;10746;50.178;8.186;2023-03-29T02:57:14;5.23;;;3.33;;
21175;SDS011;10746;50.178;8.186;2023-03-29T02:59:41;6.13;;;3.77;;
21175;SDS011;10746;50.178;8.186;2023-03-29T03:02:10;6.53;;;3.60;;
21175;SDS011;10746;50.178;8.186;2023-03-29T03:04:37;4.83;;;3.63;;
21175;SDS011;10746;50.178;8.186;2023-03-29T03:07:04;4.63;;;3.93;;
21175;SDS011;10746;50.178;8.186;2023-03-29T03:09:31;3.90;;;3.50;;
21175;SDS011;10746;50.178;8.186;2023-03-29T03:11:57;7.13;;;3.37;;
21175;SDS011;10746;50.178;8.186;2023-03-29T03:14:24;5.37;;;3.53;;
21175;SDS011;10746;50.178;8.186;2023-03-29T03:16:52;6.33;;;3.30;;
21175;SDS011;10746;50.178;8.186;2023-03-29T03:19:20;6.80;;;3.50;;
21175;SDS011;10746;50.178;8.186;2023-03-29T03:21:47;6.23;;;3.20;;
21175;SDS011;10746;50.178;8.186;2023-03-29T03:24:15;7.37;;;3.60;;
21175;SDS011;10746;50.178;8.186;2023-03-29T03:26:42;7.77;;;3.70;;
21175;SDS011;10746;50.178;8.186;2023-03-29T03:29:10;6.70;;;3.40;;
21175;SDS011;10746;50.178;8.186;2023-03-29T03:31:37;3.33;;;3.07;;
21175;SDS011;10746;50.178;8.186;2023-03-29T03:34:05;8.17;;;3.97;;
21175;SDS011;10746;50.178;8.186;2023-03-29T03:36:33;6.20;;;3.70;;
21175;SDS011;10746;50.178;8.186;2023-03-29T03:39:00;3.63;;;3.20;;
21175;SDS011;10746;50.178;8.186;2023-03-29T03:41:29;4.70;;;3.60;;
21175;SDS011;10746;50.178;8.186;2023-03-29T03:43:56;4.43;;;3.40;;
21175;SDS011;10746;50.178;8.186;2023-03-29T03:46:23;5.70;;;3.63;;
21175;SDS011;10746;50.178;8.186;2023-03-29T03:48:50;7.13;;;3.97;;
21175;SDS011;10746;50.178;8.186;2023-03-29T03:51:16;5.37;;;3.63;;
21175;SDS011;10746;50.178;8.186;2023-03-29T03:53:45;4.80;;;3.57;;
21175;SDS011;10746;50.178;8.186;2023-03-29T03:56:12;4.43;;;3.40;;
21175;SDS011;10746;50.178;8.186;2023-03-29T03:58:38;4.13;;;3.30;;
21175;SDS011;10746;50.178;8.186;2023-03-29T04:01:05;6.40;;;3.73;;
21175;SDS011;10746;50.178;8.186;2023-03-29T04:03:34;5.00;;;3.60;;
21175;SDS011;10746;50.178;8.186;2023-03-29T04:06:01;4.93;;;3.63;;
21175;SDS011;10746;50.178;8.186;2023-03-29T04:08:29;8.37;;;3.77;;
21175;SDS011;10746;50.178;8.186;2023-03-29T04:10:57;4.43;;;3.60;;
21175;SDS011;10746;50.178;8.186;2023-03-29T04:13:25;5.70;;;3.60;;
21175;SDS011;10746;50.178;8.186;2023-03-29T04:15:52;5.47;;;3.60;;
21175;SDS011;10746;50.178;8.186;2023-03-29T04:18:20;3.93;;;3.20;;
21175;SDS011;10746;50.178;8.186;2023-03-29T04:20:48;4.07;;;3.30;;
21175;SDS011;10746;50.178;8.186;2023-03-29T04:23:15;6.13;;;3.83;;
21175;SDS011;10746;50.178;8.186;2023-03-29T04:25:42;4.73;;;3.63;;
21175;SDS011;10746;50.178;8.186;2023-03-29T04:28:10;4.90;;;3.60;;
21175;SDS011;10746;50.178;8.186;2023-03-29T04:30:37;4.60;;;3.67;;
21175;SDS011;10746;50.178;8.186;2023-03-29T04:33:05;7.10;;;3.73;;
21175;SDS011;10746;50.178;8.186;2023-03-29T04:35:31;7.37;;;3.47;;
21175;SDS011;10746;50.178;8.186;2023-03-29T04:37:58;5.03;;;4.10;;
21175;SDS011;10746;50.178;8.186;2023-03-29T04:40:26;6.80;;;3.87;;
21175;SDS011;10746;50.178;8.186;2023-03-29T04:42:53;4.50;;;4.10;;
21175;SDS011;10746;50.178;8.186;2023-03-29T04:45:21;7.13;;;3.87;;
21175;SDS011;10746;50.178;8.186;2023-03-29T04:47:48;5.43;;;3.80;;
21175;SDS011;10746;50.178;8.186;2023-03-29T04:50:15;7.33;;;4.60;;
21175;SDS011;10746;50.178;8.186;2023-03-29T04:52:41;8.30;;;3.80;;
21175;SDS011;10746;50.178;8.186;2023-03-29T04:55:09;5.30;;;4.10;;
21175;SDS011;10746;50.178;8.186;2023-03-29T04:57:36;5.90;;;3.47;;
21175;SDS011;10746;50.178;8.186;2023-03-29T05:00:03;7.30;;;4.07;;
21175;SDS011;10746;50.178;8.186;2023-03-29T05:02:40;9.67;;;4.53;;
21175;SDS011;10746;50.178;8.186;2023-03-29T05:05:08;9.10;;;4.27;;
21175;SDS011;10746;50.178;8.186;2023-03-29T05:07:35;6.50;;;4.00;;
21175;SDS011;10746;50.178;8.186;2023-03-29T05:10:02;7.23;;;3.77;;
21175;SDS011;10746;50.178;8.186;2023-03-29T05:12:29;8.40;;;4.30;;
21175;SDS011;10746;50.178;8.186;2023-03-29T05:14:56;6.73;;;3.93;;
21175;SDS011;10746;50.178;8.186;2023-03-29T05:17:23;6.20;;;4.30;;
21175;SDS011;10746;50.178;8.186;2023-03-29T05:19:52;7.33;;;4.23;;
21175;SDS011;10746;50.178;8.186;2023-03-29T05:22:19;5.67;;;3.80;;
21175;SDS011;10746;50.178;8.186;2023-03-29T05:24:47;7.27;;;4.10;;
21175;SDS011;10746;50.178;8.186;2023-03-29T05:27:14;7.70;;;4.67;;
21175;SDS011;10746;50.178;8.186;2023-03-29T05:29:42;9.30;;;5.10;;
21175;SDS011;10746;50.178;8.186;2023-03-29T05:32:08;7.03;;;4.83;;
21175;SDS011;10746;50.178;8.186;2023-03-29T05:34:35;10.77;;;4.47;;
21175;SDS011;10746;50.178;8.186;2023-03-29T05:37:04;8.30;;;4.43;;
21175;SDS011;10746;50.178;8.186;2023-03-29T05:39:31;11.17;;;5.67;;
21175;SDS011;10746;50.178;8.186;2023-03-29T05:41:58;8.63;;;4.60;;
21175;SDS011;10746;50.178;8.186;2023-03-29T05:44:25;8.93;;;4.80;;
21175;SDS011;10746;50.178;8.186;2023-03-29T05:46:51;10.13;;;5.20;;
21175;SDS011;10746;50.178;8.186;2023-03-29T05:49:18;6.93;;;4.53;;
21175;SDS011;10746;50.178;8.186;2023-03-29T05:51:45;6.33;;;4.77;;
21175;SDS011;10746;50.178;8.186;2023-03-29T05:54:13;10.60;;;4.33;;
21175;SDS011;10746;50.178;8.186;2023-03-29T05:56:40;6.87;;;4.20;;
21175;SDS011;10746;50.178;8.186;2023-03-29T05:59:07;5.97;;;4.70;;
21175;SDS011;10746;50.178;8.186;2023-03-29T06:01:34;11.43;;;4.80;;
21175;SDS011;10746;50.178;8.186;2023-03-29T06:04:01;6.03;;;4.87;;
21175;SDS011;10746;50.178;8.186;2023-03-29T06:06:27;7.37;;;4.87;;
21175;SDS011;10746;50.178;8.186;2023-03-29T06:08:54;7.80;;;5.20;;
21175;SDS011;10746;50.178;8.186;2023-03-29T06:11:22;7.60;;;4.77;;
21175;SDS011;10746;50.178;8.186;2023-03-29T06:13:50;8.60;;;4.40;;
21175;SDS011;10746;50.178;8.186;2023-03-29T06:16:17;8.07;;;4.50;;
21175;SDS011;10746;50.178;8.186;2023-03-29T06:18:44;7.97;;;4.67;;
21175;SDS011;10746;50.178;8.186;2023-03-29T06:21:11;7.13;;;4.17;;
21175;SDS011;10746;50.178;8.186;2023-03-29T06:23:38;17.80;;;6.60;;
21175;SDS011;10746;50.178;8.186;2023-03-29T06:26:05;6.67;;;4.50;;
21175;SDS011;10746;50.178;8.186;2023-03-29T06:28:35;6.53;;;4.37;;
21175;SDS011;10746;50.178;8.186;2023-03-29T06:31:02;7.13;;;4.27;;
21175;SDS011;10746;50.178;8.186;2023-03-29T06:33:29;7.53;;;4.63;;
21175;SDS011;10746;50.178;8.186;2023-03-29T06:35:58;6.57;;;4.23;;
21175;SDS011;10746;50.178;8.186;2023-03-29T06:38:24;11.77;;;5.40;;
21175;SDS011;10746;50.178;8.186;2023-03-29T06:40:58;10.10;;;4.63;;
21175;SDS011;10746;50.178;8.186;2023-03-29T06:43:26;6.77;;;4.53;;
21175;SDS011;10746;50.178;8.186;2023-03-29T06:45:54;6.77;;;4.20;;
21175;SDS011;10746;50.178;8.186;2023-03-29T06:48:21;8.23;;;4.17;;
21175;SDS011;10746;50.178;8.186;2023-03-29T06:50:48;6.73;;;4.60;;
21175;SDS011;10746;50.178;8.186;2023-03-29T06:53:15;6.00;;;4.47;;
21175;SDS011;10746;50.178;8.186;2023-03-29T06:55:42;7.90;;;4.67;;
21175;SDS011;10746;50.178;8.186;2023-03-29T06:58:09;10.70;;;4.87;;
21175;SDS011;10746;50.178;8.186;2023-03-29T07:00:36;6.83;;;4.57;;
21175;SDS011;10746;50.178;8.186;2023-03-29T07:03:05;7.60;;;4.20;;
21175;SDS011;10746;50.178;8.186;2023-03-29T07:05:34;8.77;;;4.60;;
21175;SDS011;10746;50.178;8.186;2023-03-29T07:08:04;9.43;;;4.63;;
21175;SDS011;10746;50.178;8.186;2023-03-29T07:10:38;7.27;;;4.27;;
21175;SDS011;10746;50.178;8.186;2023-03-29T07:13:07;9.93;;;5.40;;
21175;SDS011;10746;50.178;8.186;2023-03-29T07:15:37;6.90;;;4.60;;
21175;SDS011;10746;50.178;8.186;2023-03-29T07:18:06;9.83;;;4.30;;
21175;SDS011;10746;50.178;8.186;2023-03-29T07:20:34;8.20;;;4.63;;
21175;SDS011;10746;50.178;8.186;2023-03-29T07:23:02;8.47;;;4.10;;
21175;SDS011;10746;50.178;8.186;2023-03-29T07:25:29;6.97;;;4.67;;
21175;SDS011;10746;50.178;8.186;2023-03-29T07:27:57;7.53;;;4.60;;
21175;SDS011;10746;50.178;8.186;2023-03-29T07:30:26;7.93;;;4.33;;
21175;SDS011;10746;50.178;8.186;2023-03-29T07:32:54;6.63;;;4.33;;
21175;SDS011;10746;50.178;8.186;2023-03-29T07:35:24;10.40;;;4.63;;
21175;SDS011;10746;50.178;8.186;2023-03-29T07:37:51;7.67;;;4.20;;
21175;SDS011;10746;50.178;8.186;2023-03-29T07:40:20;12.23;;;4.57;;
21175;SDS011;10746;50.178;8.186;2023-03-29T07:42:48;7.77;;;4.60;;
21175;SDS011;10746;50.178;8.186;2023-03-29T07:45:17;6.33;;;4.20;;
21175;SDS011;10746;50.178;8.186;2023-03-29T07:47:46;6.00;;;4.53;;
21175;SDS011;10746;50.178;8.186;2023-03-29T07:50:14;9.40;;;4.03;;
21175;SDS011;10746;50.178;8.186;2023-03-29T07:52:43;7.47;;;4.30;;
21175;SDS011;10746;50.178;8.186;2023-03-29T07:55:11;9.03;;;4.57;;
21175;SDS011;10746;50.178;8.186;2023-03-29T07:57:38;8.57;;;4.23;;
21175;SDS011;10746;50.178;8.186;2023-03-29T08:00:06;4.73;;;3.90;;
21175;SDS011;10746;50.178;8.186;2023-03-29T08:02:38;6.97;;;4.17;;
21175;SDS011;10746;50.178;8.186;2023-03-29T08:05:06;5.43;;;3.80;;
21175;SDS011;10746;50.178;8.186;2023-03-29T08:07:34;5.07;;;4.37;;
21175;SDS011;10746;50.178;8.186;2023-03-29T08:10:03;8.17;;;3.80;;
21175;SDS011;10746;50.178;8.186;2023-03-29T08:12:30;12.27;;;3.80;;
21175;SDS011;10746;50.178;8.186;2023-03-29T08:14:58;5.43;;;3.50;;
21175;SDS011;10746;50.178;8.186;2023-03-29T08:17:24;8.53;;;3.70;;
21175;SDS011;10746;50.178;8.186;2023-03-29T08:19:51;3.67;;;3.37;;
21175;SDS011;10746;50.178;8.186;2023-03-29T08:22:18;7.33;;;3.83;;
21175;SDS011;10746;50.178;8.186;2023-03-29T08:24:46;4.30;;;3.03;;
21175;SDS011;10746;50.178;8.186;2023-03-29T08:27:14;5.63;;;3.50;;
21175;SDS011;10746;50.178;8.186;2023-03-29T08:29:42;6.93;;;3.77;;
21175;SDS011;10746;50.178;8.186;2023-03-29T08:32:08;5.03;;;4.00;;
21175;SDS011;10746;50.178;8.186;2023-03-29T08:34:36;5.80;;;3.80;;
21175;SDS011;10746;50.178;8.186;2023-03-29T08:37:03;4.97;;;3.70;;
21175;SDS011;10746;50.178;8.186;2023-03-29T08:39:30;6.13;;;3.43;;
21175;SDS011;10746;50.178;8.186;2023-03-29T08:41:59;9.53;;;3.97;;
21175;SDS011;10746;50.178;8.186;2023-03-29T08:44:43;7.93;;;3.93;;
21175;SDS011;10746;50.178;8.186;2023-03-29T08:47:22;5.17;;;3.70;;
21175;SDS011;10746;50.178;8.186;2023-03-29T08:49:56;6.30;;;3.70;;
21175;SDS011;10746;50.178;8.186;2023-03-29T08:52:28;7.57;;;3.97;;
21175;SDS011;10746;50.178;8.186;2023-03-29T08:54:59;4.77;;;3.70;;
21175;SDS011;10746;50.178;8.186;2023-03-29T08:57:30;8.40;;;4.20;;
21175;SDS011;10746;50.178;8.186;2023-03-29T09:00:00;8.03;;;4.40;;
21175;SDS011;10746;50.178;8.186;2023-03-29T09:02:31;5.57;;;3.70;;
21175;SDS011;10746;50.178;8.186;2023-03-29T09:05:03;5.27;;;3.70;;
21175;SDS011;10746;50.178;8.186;2023-03-29T09:07:33;5.67;;;3.63;;
21175;SDS011;10746;50.178;8.186;2023-03-29T09:10:01;3.67;;;2.97;;
21175;SDS011;10746;50.178;8.186;2023-03-29T09:12:32;8.33;;;3.40;;
21175;SDS011;10746;50.178;8.186;2023-03-29T09:15:10;4.93;;;3.50;;
21175;SDS011;10746;50.178;8.186;2023-03-29T09:17:47;5.20;;;3.10;;
21175;SDS011;10746;50.178;8.186;2023-03-29T09:20:24;8.43;;;3.37;;
21175;SDS011;10746;50.178;8.186;2023-03-29T09:23:03;5.57;;;3.43;;
21175;SDS011;10746;50.178;8.186;2023-03-29T09:25:46;3.63;;;3.20;;
21175;SDS011;10746;50.178;8.186;2023-03-29T09:28:23;3.37;;;3.07;;
21175;SDS011;10746;50.178;8.186;2023-03-29T09:30:57;7.33;;;3.03;;
21175;SDS011;10746;50.178;8.186;2023-03-29T09:33:30;4.20;;;3.20;;
21175;SDS011;10746;50.178;8.186;2023-03-29T09:36:07;5.33;;;2.90;;
21175;SDS011;10746;50.178;8.186;2023-03-29T09:38:38;4.93;;;2.80;;
21175;SDS011;10746;50.178;8.186;2023-03-29T09:41:09;3.73;;;2.77;;
21175;SDS011;10746;50.178;8.186;2023-03-29T09:43:44;4.17;;;2.90;;
21175;SDS011;10746;50.178;8.186;2023-03-29T09:46:16;5.00;;;3.27;;
21175;SDS011;10746;50.178;8.186;2023-03-29T09:48:47;3.60;;;3.03;;
21175;SDS011;10746;50.178;8.186;2023-03-29T09:51:16;4.03;;;2.63;;
21175;SDS011;10746;50.178;8.186;2023-03-29T09:53:47;5.10;;;3.30;;
21175;SDS011;10746;50.178;8.186;2023-03-29T09:56:14;6.50;;;3.60;;
21175;SDS011;10746;50.178;8.186;2023-03-29T09:58:43;4.77;;;3.30;;
21175;SDS011;10746;50.178;8.186;2023-03-29T10:01:11;3.87;;;2.97;;
21175;SDS011;10746;50.178;8.186;2023-03-29T10:03:46;3.63;;;3.20;;
21175;SDS011;10746;50.178;8.186;2023-03-29T10:06:14;8.13;;;3.27;;
21175;SDS011;10746;50.178;8.186;2023-03-29T10:08:43;5.90;;;2.80;;
21175;SDS011;10746;50.178;8.186;2023-03-29T10:11:16;6.60;;;3.10;;
21175;SDS011;10746;50.178;8.186;2023-03-29T10:13:48;4.30;;;2.40;;
21175;SDS011;10746;50.178;8.186;2023-03-29T10:16:20;3.10;;;2.50;;
21175;SDS011;10746;50.178;8.186;2023-03-29T10:18:50;4.27;;;2.53;;
21175;SDS011;10746;50.178;8.186;2023-03-29T10:21:18;3.30;;;2.70;;
21175;SDS011;10746;50.178;8.186;2023-03-29T10:23:46;4.37;;;2.63;;
21175;SDS011;10746;50.178;8.186;2023-03-29T10:26:16;3.10;;;2.80;;
21175;SDS011;10746;50.178;8.186;2023-03-29T10:28:49;3.20;;;2.63;;
21175;SDS011;10746;50.178;8.186;2023-03-29T10:31:20;3.87;;;2.50;;
21175;SDS011;10746;50.178;8.186;2023-03-29T10:33:51;3.50;;;2.87;;
21175;SDS011;10746;50.178;8.186;2023-03-29T10:36:20;2.92;;;2.65;;
21175;SDS011;10746;50.178;8.186;2023-03-29T10:38:49;5.57;;;3.17;;
21175;SDS011;10746;50.178;8.186;2023-03-29T10:41:16;9.30;;;3.10;;
21175;SDS011;10746;50.178;8.186;2023-03-29T10:43:46;5.30;;;3.00;;
21175;SDS011;10746;50.178;8.186;2023-03-29T10:46:20;3.37;;;3.07;;
21175;SDS011;10746;50.178;8.186;2023-03-29T10:48:49;8.45;;;3.85;;
21175;SDS011;10746;50.178;8.186;2023-03-29T10:51:22;8.23;;;3.40;;
21175;SDS011;10746;50.178;8.186;2023-03-29T10:53:51;6.43;;;3.10;;
21175;SDS011;10746;50.178;8.186;2023-03-29T10:56:28;4.65;;;3.00;;
21175;SDS011;10746;50.178;8.186;2023-03-29T10:59:10;2.97;;;2.55;;
21175;SDS011;10746;50.178;8.186;2023-03-29T11:05:04;6.22;;;2.95;;
21175;SDS011;10746;50.178;8.186;2023-03-29T11:07:43;4.75;;;2.88;;
21175;SDS011;10746;50.178;8.186;2023-03-29T11:10:26;3.55;;;2.70;;
21175;SDS011;10746;50.178;8.186;2023-03-29T11:13:02;6.10;;;3.00;;
21175;SDS011;10746;50.178;8.186;2023-03-29T11:15:40;4.28;;;2.63;;
21175;SDS011;10746;50.178;8.186;2023-03-29T11:18:25;3.80;;;2.45;;
21175;SDS011;10746;50.178;8.186;2023-03-29T11:21:02;3.47;;;3.15;;
21175;SDS011;10746;50.178;8.186;2023-03-29T11:23:42;4.85;;;3.00;;
21175;SDS011;10746;50.178;8.186;2023-03-29T11:26:15;6.72;;;2.78;;
21175;SDS011;10746;50.178;8.186;2023-03-29T11:28:47;5.95;;;3.15;;
21175;SDS011;10746;50.178;8.186;2023-03-29T11:31:21;6.30;;;2.67;;
21175;SDS011;10746;50.178;8.186;2023-03-29T11:33:59;7.28;;;3.10;;
21175;SDS011;10746;50.178;8.186;2023-03-29T11:36:36;4.40;;;2.90;;
21175;SDS011;10746;50.178;8.186;2023-03-29T11:39:14;4.45;;;2.95;;
21175;SDS011;10746;50.178;8.186;2023-03-29T11:41:51;6.18;;;3.00;;
21175;SDS011;10746;50.178;8.186;2023-03-29T11:44:21;5.07;;;3.10;;
21175;SDS011;10746;50.178;8.186;2023-03-29T11:46:53;4.40;;;2.97;;
21175;SDS011;10746;50.178;8.186;2023-03-29T11:49:25;4.05;;;2.83;;
21175;SDS011;10746;50.178;8.186;2023-03-29T11:52:00;6.65;;;2.80;;
21175;SDS011;10746;50.178;8.186;2023-03-29T11:54:31;3.55;;;2.50;;
21175;SDS011;10746;50.178;8.186;2023-03-29T11:57:04;4.10;;;2.33;;
21175;SDS011;10746;50.178;8.186;2023-03-29T11:59:38;2.70;;;2.50;;
21175;SDS011;10746;50.178;8.186;2023-03-29T12:02:11;5.72;;;2.53;;
21175;SDS011;10746;50.178;8.186;2023-03-29T12:04:47;4.22;;;2.60;;
21175;SDS011;10746;50.178;8.186;2023-03-29T12:07:18;6.63;;;2.88;;
21175;SDS011;10746;50.178;8.186;2023-03-29T12:09:49;5.28;;;3.28;;
21175;SDS011;10746;50.178;8.186;2023-03-29T12:12:20;5.22;;;2.60;;
21175;SDS011;10746;50.178;8.186;2023-03-29T12:14:54;4.65;;;2.90;;
21175;SDS011;10746;50.178;8.186;2023-03-29T12:17:27;5.78;;;3.25;;
21175;SDS011;10746;50.178;8.186;2023-03-29T12:20:04;5.30;;;3.30;;
21175;SDS011;10746;50.178;8.186;2023-03-29T12:22:35;5.40;;;2.78;;
21175;SDS011;10746;50.178;8.186;2023-03-29T12:25:03;6.40;;;3.35;;
21175;SDS011;10746;50.178;8.186;2023-03-29T12:27:32;5.72;;;3.03;;
21175;SDS011;10746;50.178;8.186;2023-03-29T12:33:17;7.25;;;3.35;;
21175;SDS011;10746;50.178;8.186;2023-03-29T12:36:01;6.28;;;3.30;;
21175;SDS011;10746;50.178;8.186;2023-03-29T12:38:37;4.25;;;3.40;;
21175;SDS011;10746;50.178;8.186;2023-03-29T12:41:09;4.47;;;3.17;;
21175;SDS011;10746;50.178;8.186;2023-03-29T12:43:43;11.73;;;3.53;;
21175;SDS011;10746;50.178;8.186;2023-03-29T12:46:13;4.82;;;2.97;;
21175;SDS011;10746;50.178;8.186;2023-03-29T12:48:42;6.57;;;3.15;;
21175;SDS011;10746;50.178;8.186;2023-03-29T12:51:13;5.68;;;3.40;;
21175;SDS011;10746;50.178;8.186;2023-03-29T12:53:42;4.45;;;3.22;;
21175;SDS011;10746;50.178;8.186;2023-03-29T12:56:12;3.88;;;2.85;;
21175;SDS011;10746;50.178;8.186;2023-03-29T13:01:32;8.88;;;3.95;;
21175;SDS011;10746;50.178;8.186;2023-03-29T13:04:16;6.13;;;3.38;;
21175;SDS011;10746;50.178;8.186;2023-03-29T13:06:59;4.45;;;2.63;;
21175;SDS011;10746;50.178;8.186;2023-03-29T13:09:32;7.22;;;3.92;;
21175;SDS011;10746;50.178;8.186;2023-03-29T13:12:10;5.68;;;3.05;;
21175;SDS011;10746;50.178;8.186;2023-03-29T13:14:45;5.82;;;3.28;;
21175;SDS011;10746;50.178;8.186;2023-03-29T13:17:18;5.03;;;2.88;;
21175;SDS011;10746;50.178;8.186;2023-03-29T13:19:55;6.28;;;2.50;;
21175;SDS011;10746;50.178;8.186;2023-03-29T13:22:39;2.85;;;2.55;;
21175;SDS011;10746;50.178;8.186;2023-03-29T13:25:16;6.93;;;2.88;;
21175;SDS011;10746;50.178;8.186;2023-03-29T13:27:54;6.47;;;2.83;;
21175;SDS011;10746;50.178;8.186;2023-03-29T13:30:28;6.20;;;3.05;;
21175;SDS011;10746;50.178;8.186;2023-03-29T13:36:04;2.65;;;2.13;;
21175;SDS011;10746;50.178;8.186;2023-03-29T13:38:44;2.58;;;2.38;;
21175;SDS011;10746;50.178;8.186;2023-03-29T13:41:25;3.75;;;2.45;;
21175;SDS011;10746;50.178;8.186;2023-03-29T13:43:57;3.97;;;2.97;;
21175;SDS011;10746;50.178;8.186;2023-03-29T13:46:34;7.75;;;3.00;;
21175;SDS011;10746;50.178;8.186;2023-03-29T13:49:04;3.00;;;2.67;;
21175;SDS011;10746;50.178;8.186;2023-03-29T13:51:39;3.90;;;2.35;;
21175;SDS011;10746;50.178;8.186;2023-03-29T13:54:14;2.38;;;2.22;;
21175;SDS011;10746;50.178;8.186;2023-03-29T13:56:54;3.53;;;2.30;;
21175;SDS011;10746;50.178;8.186;2023-03-29T13:59:26;4.18;;;2.33;;
21175;SDS011;10746;50.178;8.186;2023-03-29T14:01:59;3.90;;;2.22;;
21175;SDS011;10746;50.178;8.186;2023-03-29T14:04:29;3.90;;;2.40;;
21175;SDS011;10746;50.178;8.186;2023-03-29T14:07:01;3.47;;;2.40;;
21175;SDS011;10746;50.178;8.186;2023-03-29T14:09:31;5.38;;;2.30;;
21175;SDS011;10746;50.178;8.186;2023-03-29T14:12:01;3.53;;;2.60;;
21175;SDS011;10746;50.178;8.186;2023-03-29T14:14:28;5.05;;;2.67;;
21175;SDS011;10746;50.178;8.186;2023-03-29T14:16:56;5.95;;;2.80;;
21175;SDS011;10746;50.178;8.186;2023-03-29T14:19:27;5.45;;;2.40;;
21175;SDS011;10746;50.178;8.186;2023-03-29T14:21:56;3.47;;;2.63;;
21175;SDS011;10746;50.178;8.186;2023-03-29T14:24:26;4.03;;;2.40;;
21175;SDS011;10746;50.178;8.186;2023-03-29T14:27:01;3.58;;;2.38;;
21175;SDS011;10746;50.178;8.186;2023-03-29T14:29:30;2.75;;;2.50;;
21175;SDS011;10746;50.178;8.186;2023-03-29T14:32:06;4.55;;;2.30;;
21175;SDS011;10746;50.178;8.186;2023-03-29T14:34:35;2.75;;;2.30;;
21175;SDS011;10746;50.178;8.186;2023-03-29T14:37:02;2.47;;;2.28;;
21175;SDS011;10746;50.178;8.186;2023-03-29T14:39:30;4.07;;;2.70;;
21175;SDS011;10746;50.178;8.186;2023-03-29T14:41:59;9.05;;;2.53;;
21175;SDS011;10746;50.178;8.186;2023-03-29T14:44:29;3.50;;;2.30;;
21175;SDS011;10746;50.178;8.186;2023-03-29T14:46:58;4.63;;;2.17;;
21175;SDS011;10746;50.178;8.186;2023-03-29T14:49:27;3.63;;;2.15;;
21175;SDS011;10746;50.178;8.186;2023-03-29T14:51:54;4.00;;;2.53;;
21175;SDS011;10746;50.178;8.186;2023-03-29T14:54:22;6.10;;;2.42;;
21175;SDS011;10746;50.178;8.186;2023-03-29T14:56:52;5.15;;;2.47;;
21175;SDS011;10746;50.178;8.186;2023-03-29T14:59:24;6.22;;;2.53;;
21175;SDS011;10746;50.178;8.186;2023-03-29T15:01:52;3.33;;;2.40;;
21175;SDS011;10746;50.178;8.186;2023-03-29T15:04:19;5.88;;;2.67;;
21175;SDS011;10746;50.178;8.186;2023-03-29T15:06:46;7.00;;;2.67;;
21175;SDS011;10746;50.178;8.186;2023-03-29T15:09:17;5.20;;;2.65;;
21175;SDS011;10746;50.178;8.186;2023-03-29T15:11:51;3.20;;;2.35;;
21175;SDS011;10746;50.178;8.186;2023-03-29T15:14:19;4.40;;;2.70;;
21175;SDS011;10746;50.178;8.186;2023-03-29T15:16:49;10.75;;;2.80;;
21175;SDS011;10746;50.178;8.186;2023-03-29T15:19:21;3.10;;;2.78;;